CYYC

Calgary International Airport

Calgary, Alberta, Canada
METAR CYYC 240300Z 06003KT 6SM BR OVC011 05/03 A2992 RMK SC8 CIG VRB 10-12 SLP171
Observed Flight Rules
Sep-24 @ 03:00 UTC (60 minutes ago) Marginal Visual Flight Rules
Wind Visibility Clouds Conditions
60° at 3 knots 6 miles
  • Overcast at 1,100' AGL
  • Mist
Temperatures Readings
Current 5°C / 41°F
Dewpoint 3°C / 37°F
Humidity 87%
Altimeter 29.92" Hg
Pressure 1017.1 hPa
Elevation 1084
METAR CYYC 240300Z 06003KT 6SM BR OVC011 05/03 A2992 RMK SC8 CIG VRB 10-12 SLP171
Observed Flight Rules
Sep-24 @ 03:00 UTC
(60 minutes ago)
MVFR
Wind Visibility
60° at 3 knots 6 miles
Clouds
  • Overcast at 1,100' AGL
Conditions
  • Mist
Temperature Dewpoint
5°C / 41°F 3°C / 37°F
Humidity Altimeter Pressure
87% 29.92" Hg 1017.1 hPa